TOMAZ weather

Aviosuperficie Il Falco
Mazzè (TO), Piedmont, Italy

Public forecast

Using degrees Celsius for public forecast. Weather courtesy of forecast.io.

METAR (pilot weather report)

Closest report is Turin Airport, 13.3 nm (24.5 km) WSW. Retrieved 2019/05/21 14:20 UTC (0 seconds ago):

LIMF 211420Z 17004KT 120V230 9999 FEW045 24/12 Q1009

TAF (pilot weather forecast)

Closest forecast is Turin Airport, 13.3 nm (24.5 km) WSW. Retrieved 2019/05/21 12:00 UTC (2 hours ago):

TAF LIMF 211100Z 2112/2212 VRB05KT 9999 SCT040 TEMPO 2114/2120 SHRA